Time;durP1;ratioP1;P1;durP2;ratioP2;P2;SDS_P1;SDS_P2;PMS_P1;PMS_P2;Temp;Humidity;BMP_temperature;BMP_pressure;BME280_temperature;BME280_humidity;BME280_pressure;Samples;Min_cycle;Max_cycle;Signal;HPM_P1;HPM_P2
2021/12/16 00:01:44;;;;;;;0.30;0.30;;;;;;;7.12;100.00;102359.56;5005791;28;20046;-83
2021/12/16 00:06:59;;;;;;;0.20;0.20;;;;;;;6.96;100.00;102342.75;4967478;28;20061;-83
2021/12/16 00:09:42;;;;;;;0.20;0.20;;;;;;;7.08;100.00;102359.16;4996570;28;20054;-84
2021/12/16 00:32:18;;;;;;;0.25;0.25;;;;;;;7.06;100.00;102361.25;5011410;28;20057;-83
2021/12/16 00:34:51;;;;;;;0.30;0.30;;;;;;;7.04;100.00;102355.22;4991552;28;20055;-84
2021/12/16 00:37:26;;;;;;;0.20;0.20;;;;;;;7.03;100.00;102340.03;4989464;28;20039;-83
2021/12/16 00:39:55;;;;;;;0.20;0.20;;;;;;;7.05;100.00;102348.75;4978093;28;20426;-83
2021/12/16 00:42:34;;;;;;;0.30;0.30;;;;;;;7.08;100.00;102348.31;4977731;28;20066;-83
2021/12/16 00:47:57;;;;;;;;;;;;;;;7.07;100.00;102362.06;4973432;28;20061;-83
2021/12/16 00:56:10;;;;;;;0.30;0.30;;;;;;;7.02;100.00;102343.78;4995792;28;20050;-84
2021/12/16 00:58:45;;;;;;;0.20;0.20;;;;;;;6.94;100.00;102335.91;4995173;28;20054;-83
2021/12/16 01:01:28;;;;;;;0.20;0.20;;;;;;;7.11;100.00;102360.59;4993756;28;20046;-83
2021/12/16 01:04:37;;;;;;;0.20;0.20;;;;;;;7.08;100.00;102358.31;4995254;28;20053;-83
2021/12/16 01:07:35;;;;;;;0.20;0.20;;;;;;;7.08;100.00;102361.03;4993576;28;20058;-84
2021/12/16 01:36:13;;;;;;;0.30;0.30;;;;;;;7.00;100.00;102381.03;5005016;28;20065;-83
2021/12/16 01:47:42;;;;;;;0.30;0.30;;;;;;;7.00;100.00;102375.63;4977958;28;20058;-83
2021/12/16 01:50:16;;;;;;;0.20;0.20;;;;;;;7.04;100.00;102384.97;4973803;28;20423;-84
2021/12/16 01:55:56;;;;;;;0.28;0.28;;;;;;;7.01;100.00;102390.00;4994232;28;20060;-84
2021/12/16 01:58:28;;;;;;;0.30;0.30;;;;;;;7.05;100.00;102393.94;4995297;28;20058;-83
2021/12/16 02:01:11;;;;;;;0.30;0.30;;;;;;;7.02;100.00;102394.38;4989694;28;20050;-83
2021/12/16 02:03:45;;;;;;;0.30;0.30;;;;;;;7.05;100.00;102391.25;4992047;28;20050;-83
2021/12/16 02:06:38;;;;;;;0.30;0.30;;;;;;;7.04;100.00;102393.09;5000586;28;20430;-83
2021/12/16 02:09:17;;;;;;;0.20;0.20;;;;;;;7.02;100.00;102400.63;4999079;28;20045;-84
2021/12/16 02:12:00;;;;;;;0.20;0.20;;;;;;;7.02;100.00;102403.34;4992147;28;20046;-84
2021/12/16 02:29:01;;;;;;;0.30;0.30;;;;;;;6.99;100.00;102398.34;4988626;28;20038;-83
2021/12/16 02:31:47;;;;;;;0.22;0.22;;;;;;;7.02;100.00;102387.09;4990819;28;20065;-83
2021/12/16 02:37:10;;;;;;;0.30;0.30;;;;;;;6.97;100.00;102395.00;4990441;28;20043;-85
2021/12/16 02:39:45;;;;;;;0.20;0.20;;;;;;;6.94;100.00;102395.44;4991357;28;20403;-84
2021/12/16 02:42:19;;;;;;;0.30;0.30;;;;;;;6.94;100.00;102404.38;4993763;28;20038;-84
2021/12/16 02:50:38;;;;;;;0.30;0.30;;;;;;;6.93;100.00;102399.19;5024625;28;20073;-83
2021/12/16 02:53:12;;;;;;;0.20;0.20;;;;;;;6.92;100.00;102403.78;4990126;28;20050;-82
2021/12/16 02:55:41;;;;;;;0.22;0.22;;;;;;;6.86;100.00;102392.97;4991758;28;20057;-83
2021/12/16 02:58:09;;;;;;;0.30;0.30;;;;;;;7.01;100.00;102398.94;4988229;28;20053;-83
2021/12/16 03:00:44;;;;;;;0.30;0.30;;;;;;;6.77;100.00;102379.66;4982440;28;20057;-83
2021/12/16 03:03:18;;;;;;;0.30;0.30;;;;;;;6.93;100.00;102415.44;4972929;28;20054;-83
2021/12/16 03:05:47;;;;;;;0.30;0.30;;;;;;;7.01;100.00;102419.78;4989579;28;20135;-83
2021/12/16 03:08:17;;;;;;;0.30;0.30;;;;;;;6.94;100.00;102407.09;4973445;28;20046;-83
2021/12/16 03:11:06;;;;;;;0.30;0.30;;;;;;;7.00;100.00;102410.00;4991716;28;20061;-84
2021/12/16 03:13:44;;;;;;;0.20;0.20;;;;;;;6.98;100.00;102427.28;4992199;28;20056;-83
2021/12/16 03:16:21;;;;;;;0.30;0.30;;;;;;;7.00;100.00;102423.53;4991770;28;20057;-84
2021/12/16 03:19:09;;;;;;;0.40;0.20;;;;;;;6.94;100.00;102417.09;4992371;28;20503;-83
2021/12/16 03:21:47;;;;;;;0.40;0.40;;;;;;;7.01;100.00;102411.66;5002530;28;20057;-84
2021/12/16 03:24:40;;;;;;;0.28;0.28;;;;;;;6.93;100.00;102410.88;4989230;28;20046;-83
2021/12/16 03:36:28;;;;;;;0.30;0.30;;;;;;;7.00;100.00;102421.66;4992631;28;20051;-83
2021/12/16 03:39:08;;;;;;;0.30;0.30;;;;;;;7.01;100.00;102427.91;4991906;28;20066;-83
2021/12/16 03:41:43;;;;;;;0.20;0.20;;;;;;;6.95;100.00;102407.94;4992271;28;20054;-84
2021/12/16 03:44:14;;;;;;;0.22;0.22;;;;;;;6.98;100.00;102418.34;4993610;28;20053;-84
2021/12/16 03:46:47;;;;;;;0.40;0.40;;;;;;;7.04;100.00;102422.06;4991442;28;20061;-83
2021/12/16 03:49:23;;;;;;;0.30;0.30;;;;;;;6.93;100.00;102408.16;4991799;28;20058;-84
2021/12/16 03:51:57;;;;;;;0.30;0.30;;;;;;;7.00;100.00;102418.13;4991403;28;20046;-83
2021/12/16 03:54:37;;;;;;;0.28;0.28;;;;;;;7.01;100.00;102426.03;4991734;28;20419;-84
2021/12/16 03:57:11;;;;;;;0.30;0.30;;;;;;;6.95;100.00;102416.06;4993431;28;20657;-84
2021/12/16 03:59:46;;;;;;;0.40;0.40;;;;;;;7.06;100.00;102411.88;4986823;28;20050;-85
2021/12/16 04:02:43;;;;;;;0.35;0.35;;;;;;;7.04;100.00;102412.06;4993076;28;20490;-84
2021/12/16 04:05:23;;;;;;;0.30;0.30;;;;;;;7.02;100.00;102424.16;4995300;28;20069;-83
2021/12/16 04:08:00;;;;;;;0.40;0.40;;;;;;;6.94;100.00;102422.50;5002898;28;20383;-84
2021/12/16 04:10:40;;;;;;;0.30;0.30;;;;;;;7.03;100.00;102425.81;4999729;28;20049;-84
2021/12/16 04:13:17;;;;;;;0.30;0.30;;;;;;;6.99;100.00;102428.13;4992016;28;20077;-84
2021/12/16 04:15:57;;;;;;;0.30;0.30;;;;;;;6.72;100.00;102397.59;4991925;28;20525;-84
2021/12/16 04:18:32;;;;;;;0.30;0.30;;;;;;;6.96;100.00;102432.09;4992007;28;20054;-84
2021/12/16 04:21:01;;;;;;;0.30;0.30;;;;;;;6.80;100.00;102413.59;4991795;28;20051;-83
2021/12/16 04:23:30;;;;;;;0.30;0.30;;;;;;;7.00;100.00;102443.31;4991915;28;20050;-83
2021/12/16 04:25:59;;;;;;;0.30;0.30;;;;;;;6.92;100.00;102424.63;4991048;28;20715;-83
2021/12/16 04:28:34;;;;;;;0.30;0.30;;;;;;;6.97;100.00;102447.28;5008276;28;20495;-83
2021/12/16 04:31:08;;;;;;;0.40;0.40;;;;;;;7.01;100.00;102444.97;4990531;28;20394;-85
2021/12/16 04:33:41;;;;;;;0.40;0.40;;;;;;;7.06;100.00;102444.34;4993951;28;20057;-84
2021/12/16 04:36:11;;;;;;;0.40;0.40;;;;;;;6.92;100.00;102443.56;4992990;28;20065;-84
2021/12/16 04:38:42;;;;;;;0.30;0.30;;;;;;;6.95;100.00;102448.53;5028106;28;20046;-84
2021/12/16 04:41:18;;;;;;;0.30;0.30;;;;;;;6.95;100.00;102435.81;5028055;28;20406;-84
2021/12/16 04:43:51;;;;;;;0.20;0.20;;;;;;;7.06;100.00;102455.19;5027895;28;20053;-85
2021/12/16 04:46:22;;;;;;;0.20;0.20;;;;;;;7.02;100.00;102464.78;4995563;28;20046;-84
2021/12/16 04:49:00;;;;;;;0.30;0.30;;;;;;;7.11;100.00;102449.94;4995124;28;20050;-84
2021/12/16 04:51:42;;;;;;;0.30;0.30;;;;;;;6.98;100.00;102461.66;5028171;28;20054;-84
2021/12/16 04:54:12;;;;;;;0.22;0.22;;;;;;;6.98;100.00;102461.66;5028007;28;20058;-84
2021/12/16 04:56:48;;;;;;;0.20;0.20;;;;;;;7.09;100.00;102463.69;4995097;28;20058;-84
2021/12/16 04:59:24;;;;;;;0.30;0.30;;;;;;;6.90;100.00;102435.63;5027564;28;20054;-84
2021/12/16 05:02:00;;;;;;;0.28;0.28;;;;;;;7.12;100.00;102465.16;4994881;28;20061;-84
2021/12/16 05:04:49;;;;;;;0.30;0.30;;;;;;;7.05;100.00;102451.63;4990224;28;20053;-83
2021/12/16 05:07:21;;;;;;;0.30;0.30;;;;;;;7.04;100.00;102468.91;4995295;28;20714;-83
2021/12/16 05:10:18;;;;;;;0.30;0.30;;;;;;;7.12;100.00;102473.28;4988921;28;20407;-83
2021/12/16 05:13:06;;;;;;;0.22;0.22;;;;;;;7.10;100.00;102487.03;4991871;28;20054;-84
2021/12/16 05:15:39;;;;;;;0.30;0.30;;;;;;;7.12;100.00;102486.81;4992034;28;20411;-83
2021/12/16 05:18:12;;;;;;;0.30;0.30;;;;;;;7.11;100.00;102487.84;4994044;28;20057;-84
2021/12/16 05:20:51;;;;;;;0.30;0.30;;;;;;;7.15;100.00;102495.34;4992844;28;20050;-84
2021/12/16 05:26:20;;;;;;;0.20;0.20;;;;;;;7.15;100.00;102506.19;4994019;28;20057;-84
2021/12/16 05:29:08;;;;;;;0.20;0.20;;;;;;;7.10;100.00;102507.88;4994931;28;20058;-83
2021/12/16 05:31:45;;;;;;;0.30;0.30;;;;;;;7.15;100.00;102518.88;4994416;28;20058;-84
2021/12/16 05:34:19;;;;;;;0.32;0.32;;;;;;;7.21;100.00;102517.19;4994119;28;20046;-84
2021/12/16 05:36:49;;;;;;;0.28;0.28;;;;;;;7.05;100.00;102491.41;4994774;28;20124;-83
2021/12/16 05:39:19;;;;;;;0.30;0.30;;;;;;;7.16;100.00;102517.84;5007554;28;20049;-84
2021/12/16 05:42:10;;;;;;;0.30;0.30;;;;;;;7.20;100.00;102523.66;5011881;28;20054;-84
2021/12/16 05:44:45;;;;;;;0.30;0.30;;;;;;;7.18;100.00;102510.34;5013929;28;20057;-83
2021/12/16 05:47:16;;;;;;;0.30;0.30;;;;;;;7.20;100.00;102516.38;5012996;28;20057;-84
2021/12/16 05:49:47;;;;;;;0.30;0.30;;;;;;;7.15;100.00;102508.03;5013434;28;20054;-83
2021/12/16 05:52:15;;;;;;;0.38;0.38;;;;;;;6.96;100.00;102488.06;5013521;28;20054;-84
2021/12/16 05:54:44;;;;;;;0.30;0.30;;;;;;;7.29;100.00;102508.84;5013821;28;20668;-85
2021/12/16 05:57:21;;;;;;;0.40;0.40;;;;;;;7.15;100.00;102508.03;5013104;28;20057;-84
2021/12/16 05:59:56;;;;;;;0.30;0.30;;;;;;;7.30;100.00;102518.63;5013150;28;20053;-84
2021/12/16 06:02:32;;;;;;;0.30;0.30;;;;;;;7.17;100.00;102526.78;5021155;28;20050;-83
2021/12/16 06:05:06;;;;;;;0.30;0.30;;;;;;;7.23;100.00;102545.72;5013139;28;20057;-83
2021/12/16 06:07:35;;;;;;;0.30;0.30;;;;;;;7.21;100.00;102541.56;5012975;28;20065;-84
2021/12/16 06:10:18;;;;;;;0.32;0.30;;;;;;;7.26;100.00;102548.00;5004906;28;20054;-84
2021/12/16 06:12:52;;;;;;;0.30;0.30;;;;;;;7.20;100.00;102553.44;4994537;28;20046;-83
2021/12/16 06:15:34;;;;;;;0.30;0.30;;;;;;;7.17;100.00;102553.84;4977331;28;20051;-84
2021/12/16 06:26:39;;;;;;;0.30;0.30;;;;;;;7.29;100.00;102576.53;4996956;28;20053;-84
2021/12/16 06:29:07;;;;;;;0.40;0.40;;;;;;;7.29;100.00;102566.56;4989889;28;20050;-85
2021/12/16 06:31:40;;;;;;;0.30;0.30;;;;;;;7.14;100.00;102553.25;4990475;28;20392;-84
2021/12/16 06:34:16;;;;;;;0.30;0.30;;;;;;;7.29;100.00;102568.41;4993603;28;20487;-85
2021/12/16 06:36:49;;;;;;;0.30;0.30;;;;;;;7.27;100.00;102573.22;4994113;28;20054;-84
2021/12/16 06:39:23;;;;;;;0.30;0.30;;;;;;;7.28;100.00;102580.31;4992732;28;20062;-85
2021/12/16 06:42:20;;;;;;;0.30;0.30;;;;;;;7.27;100.00;102581.34;4994070;28;20050;-85
2021/12/16 06:44:55;;;;;;;0.25;0.25;;;;;;;7.27;100.00;102587.59;4993207;28;20056;-85
2021/12/16 06:47:31;;;;;;;0.30;0.30;;;;;;;7.19;100.00;102590.50;4992487;28;20054;-85
2021/12/16 06:50:00;;;;;;;0.30;0.30;;;;;;;7.28;100.00;102599.28;4993267;28;20050;-85
2021/12/16 06:52:40;;;;;;;0.20;0.20;;;;;;;7.14;100.00;102584.91;4992732;28;20050;-85
2021/12/16 06:55:20;;;;;;;0.40;0.40;;;;;;;7.14;100.00;102584.91;4991815;28;20483;-85
2021/12/16 06:57:53;;;;;;;0.30;0.30;;;;;;;7.25;100.00;102599.66;5017325;28;20046;-85
2021/12/16 07:00:31;;;;;;;0.30;0.30;;;;;;;7.28;100.00;102605.50;5007169;28;20043;-85
2021/12/16 07:03:07;;;;;;;0.20;0.20;;;;;;;7.32;100.00;102622.19;4992089;28;20046;-84
2021/12/16 07:05:42;;;;;;;0.20;0.20;;;;;;;7.27;100.00;102622.78;4988727;28;20050;-85
2021/12/16 07:08:13;;;;;;;0.20;0.20;;;;;;;7.32;100.00;102622.19;4981312;28;20047;-85
2021/12/16 07:10:47;;;;;;;0.30;0.30;;;;;;;7.35;100.00;102631.75;4988732;28;20054;-85
2021/12/16 07:13:30;;;;;;;0.30;0.30;;;;;;;7.36;100.00;102639.69;4986525;28;20046;-85
2021/12/16 07:16:04;;;;;;;0.30;0.30;;;;;;;7.29;100.00;102644.25;4973811;28;20035;-85
2021/12/16 07:18:38;;;;;;;0.20;0.20;;;;;;;7.24;100.00;102644.06;4982736;28;20061;-85
2021/12/16 07:21:12;;;;;;;0.30;0.30;;;;;;;7.28;100.00;102650.72;4992249;28;20050;-86
2021/12/16 07:23:46;;;;;;;0.30;0.30;;;;;;;7.32;100.00;102657.41;4992046;28;20057;-85
2021/12/16 07:26:19;;;;;;;0.30;0.30;;;;;;;7.31;100.00;102664.66;4991794;28;20062;-85
2021/12/16 07:28:52;;;;;;;0.40;0.40;;;;;;;7.30;100.00;102654.03;4989063;28;20055;-85
2021/12/16 07:31:27;;;;;;;0.30;0.30;;;;;;;7.32;100.00;102665.53;4990901;28;20042;-84
2021/12/16 07:33:56;;;;;;;0.30;0.30;;;;;;;7.38;100.00;102675.50;4994525;28;20050;-85
2021/12/16 07:36:27;;;;;;;0.30;0.30;;;;;;;7.27;100.00;102668.84;4992608;28;20038;-86
2021/12/16 07:39:01;;;;;;;0.30;0.30;;;;;;;7.28;100.00;102683.22;4991361;28;20050;-86
2021/12/16 07:41:32;;;;;;;0.40;0.40;;;;;;;7.29;100.00;102684.88;4992116;28;20049;-85
2021/12/16 07:44:11;;;;;;;0.30;0.30;;;;;;;7.21;100.00;102676.94;4991725;28;20422;-85
2021/12/16 07:46:42;;;;;;;0.40;0.40;;;;;;;7.29;100.00;102688.44;4992317;28;20050;-84
2021/12/16 07:49:13;;;;;;;0.30;0.30;;;;;;;7.27;100.00;102692.38;4991720;28;20054;-82
2021/12/16 07:51:48;;;;;;;0.30;0.30;;;;;;;7.21;100.00;102693.19;4988842;28;20042;-85
2021/12/16 07:54:18;;;;;;;0.30;0.30;;;;;;;7.30;100.00;102716.34;4989135;28;20502;-85
2021/12/16 07:56:55;;;;;;;0.30;0.30;;;;;;;7.29;100.00;102704.69;4990707;28;20525;-82
2021/12/16 07:59:25;;;;;;;0.30;0.30;;;;;;;7.24;100.00;102687.41;4990487;28;20051;-84
2021/12/16 08:01:54;;;;;;;0.30;0.30;;;;;;;7.31;100.00;102712.59;4992807;28;20057;-85
2021/12/16 08:04:30;;;;;;;0.30;0.30;;;;;;;7.26;100.00;102721.31;4983910;28;20054;-84
2021/12/16 08:07:07;;;;;;;0.30;0.30;;;;;;;7.18;100.00;102707.16;4989823;28;20057;-84
2021/12/16 08:09:40;;;;;;;0.40;0.40;;;;;;;7.26;100.00;102725.91;4988978;28;20042;-85
2021/12/16 08:12:31;;;;;;;0.40;0.40;;;;;;;7.34;100.00;102725.72;4996973;28;20049;-85
2021/12/16 08:15:04;;;;;;;0.30;0.30;;;;;;;7.22;100.00;102705.72;4994137;28;20053;-85
2021/12/16 08:17:38;;;;;;;0.20;0.20;;;;;;;7.30;100.00;102713.63;4985378;28;20053;-85
2021/12/16 08:20:07;;;;;;;0.40;0.40;;;;;;;7.33;100.00;102721.34;4970353;28;20535;-85
2021/12/16 08:22:37;;;;;;;0.20;0.20;;;;;;;7.27;100.00;102714.06;4989475;28;20073;-86
2021/12/16 08:25:06;;;;;;;0.30;0.30;;;;;;;7.15;100.00;102690.31;4981007;28;20061;-85
2021/12/16 08:27:37;;;;;;;0.30;0.30;;;;;;;7.29;100.00;102720.94;4982939;28;20130;-86
2021/12/16 08:30:13;;;;;;;0.20;0.20;;;;;;;7.28;100.00;102727.38;4987201;28;20042;-86
2021/12/16 08:32:47;;;;;;;0.30;0.30;;;;;;;7.29;100.00;102722.78;4990363;28;20542;-86
2021/12/16 08:35:15;;;;;;;0.40;0.40;;;;;;;7.24;100.00;102726.13;4989308;28;20054;-86
2021/12/16 08:37:51;;;;;;;0.30;0.30;;;;;;;7.11;100.00;102716.13;4984087;28;20043;-85
2021/12/16 08:40:25;;;;;;;0.25;0.25;;;;;;;7.07;100.00;102722.16;5003450;28;20053;-85
2021/12/16 08:42:58;;;;;;;0.20;0.20;;;;;;;6.97;100.00;102726.09;4984349;28;20050;-86
2021/12/16 08:45:31;;;;;;;0.30;0.30;;;;;;;7.00;100.00;102730.25;4978289;28;20730;-86
2021/12/16 08:48:00;;;;;;;0.30;0.30;;;;;;;6.93;100.00;102737.53;4989655;28;20054;-85
2021/12/16 08:50:37;;;;;;;0.25;0.25;;;;;;;6.83;100.00;102745.22;4984698;28;20771;-86
2021/12/16 08:53:12;;;;;;;0.30;0.30;;;;;;;6.85;100.00;102756.66;4986086;28;20054;-85
2021/12/16 08:55:47;;;;;;;0.20;0.20;;;;;;;6.79;100.00;102764.56;4987152;28;20058;-85
2021/12/16 08:58:16;;;;;;;0.20;0.20;;;;;;;6.81;100.00;102767.06;4984287;28;20142;-85
2021/12/16 09:00:47;;;;;;;0.30;0.30;;;;;;;6.74;100.00;102767.06;4981198;28;20517;-86
2021/12/16 09:03:21;;;;;;;0.27;0.27;;;;;;;6.74;100.00;102767.06;4973240;28;20061;-86
2021/12/16 09:05:55;;;;;;;0.20;0.20;;;;;;;6.75;100.00;102765.16;4970173;28;20305;-85
2021/12/16 09:08:30;;;;;;;0.30;0.30;;;;;;;6.75;100.00;102771.44;4967130;28;20435;-87
2021/12/16 09:11:07;;;;;;;0.30;0.30;;;;;;;6.71;100.00;102772.00;4986422;28;20050;-86
2021/12/16 09:13:38;;;;;;;0.20;0.20;;;;;;;6.69;100.00;102761.41;4972271;28;20050;-84
2021/12/16 09:16:17;;;;;;;0.30;0.30;;;;;;;6.74;100.00;102760.78;5007478;28;20423;-86
2021/12/16 09:18:46;;;;;;;0.20;0.20;;;;;;;6.72;100.00;102757.47;4959785;28;20049;-85
2021/12/16 09:21:22;;;;;;;0.30;0.30;;;;;;;6.73;100.00;102757.25;5001530;28;20062;-85
2021/12/16 09:23:58;;;;;;;0.30;0.30;;;;;;;6.71;100.00;102761.19;4967903;28;20062;-86
2021/12/16 09:26:31;;;;;;;0.20;0.20;;;;;;;6.56;100.00;102732.44;4966477;28;20054;-86
2021/12/16 09:29:05;;;;;;;0.20;0.20;;;;;;;6.68;100.00;102748.91;4964213;28;20070;-85
2021/12/16 09:31:39;;;;;;;0.35;0.35;;;;;;;6.80;100.00;102765.41;4967215;28;20050;-85
2021/12/16 09:34:12;;;;;;;0.20;0.20;;;;;;;6.86;100.00;102767.28;4975992;28;20293;-86
2021/12/16 09:36:43;;;;;;;0.30;0.30;;;;;;;6.91;100.00;102772.91;5001380;28;20274;-85
2021/12/16 09:39:21;;;;;;;0.30;0.30;;;;;;;6.97;100.00;102780.25;4970951;28;20053;-85
2021/12/16 09:41:51;;;;;;;0.30;0.30;;;;;;;7.01;100.00;102772.53;4975920;28;20060;-84
2021/12/16 09:44:26;;;;;;;0.20;0.20;;;;;;;7.11;100.00;102786.53;4976819;28;20046;-85
2021/12/16 09:47:02;;;;;;;0.30;0.30;;;;;;;7.21;100.00;102798.81;4980927;28;20061;-85
2021/12/16 09:49:36;;;;;;;0.20;0.20;;;;;;;7.23;100.00;102807.59;4980575;28;20050;-85
2021/12/16 09:52:06;;;;;;;0.30;0.30;;;;;;;7.24;100.00;102787.59;4985777;28;20491;-86
2021/12/16 09:54:43;;;;;;;0.20;0.20;;;;;;;7.20;100.00;102783.63;4979916;28;20051;-85
2021/12/16 09:57:18;;;;;;;0.30;0.30;;;;;;;7.21;100.00;102782.56;4982517;28;20065;-85
2021/12/16 09:59:47;;;;;;;0.30;0.30;;;;;;;7.36;100.00;102802.19;4978908;28;20046;-85
2021/12/16 10:02:22;;;;;;;0.20;0.20;;;;;;;7.41;100.00;102805.09;4981960;28;21380;-86
2021/12/16 10:04:51;;;;;;;0.20;0.20;;;;;;;7.55;100.00;102819.50;4984647;28;20070;-86
2021/12/16 10:07:33;;;;;;;0.22;0.22;;;;;;;7.53;100.00;102797.22;4983727;28;20058;-86
2021/12/16 10:10:06;;;;;;;0.20;0.20;;;;;;;7.65;100.00;102819.09;4977252;28;20064;-85
2021/12/16 10:12:43;;;;;;;0.30;0.30;;;;;;;7.66;100.00;102807.22;4994366;28;20073;-84
2021/12/16 10:18:13;;;;;;;0.30;0.30;;;;;;;7.60;100.00;102827.84;4982789;28;20057;-86
2021/12/16 10:20:51;;;;;;;0.30;0.30;;;;;;;7.61;100.00;102825.97;4980804;28;20073;-86
2021/12/16 10:23:21;;;;;;;0.20;0.20;;;;;;;7.45;100.00;102828.03;4976800;28;20047;-86
2021/12/16 10:25:54;;;;;;;0.30;0.30;;;;;;;7.38;100.00;102818.25;4965867;28;20345;-85
2021/12/16 10:28:25;;;;;;;0.20;0.20;;;;;;;7.40;100.00;102835.97;4968853;28;20496;-86
2021/12/16 10:31:02;;;;;;;0.20;0.20;;;;;;;7.39;100.00;102839.72;4964904;28;20085;-85
2021/12/16 10:33:40;;;;;;;0.30;0.30;;;;;;;7.51;100.00;102839.09;4965633;28;20050;-85
2021/12/16 10:36:16;;;;;;;0.20;0.20;;;;;;;7.32;100.00;102839.69;4979340;28;20061;-86
2021/12/16 10:38:48;;;;;;;0.30;0.30;;;;;;;7.32;100.00;102842.41;4984259;28;20066;-85
2021/12/16 10:41:23;;;;;;;0.20;0.20;;;;;;;7.28;100.00;102834.91;4983732;28;20054;-86
2021/12/16 10:44:02;;;;;;;0.50;0.38;;;;;;;7.35;100.00;102829.47;4980779;28;20392;-86
2021/12/16 10:46:34;;;;;;;0.28;0.28;;;;;;;7.40;100.00;102827.00;4985054;28;20050;-83
2021/12/16 10:49:10;;;;;;;0.30;0.30;;;;;;;7.19;100.00;102811.75;4988021;28;20046;-85
2021/12/16 10:51:46;;;;;;;0.30;0.30;;;;;;;7.26;100.00;102834.25;4981233;28;20054;-86
2021/12/16 10:54:22;;;;;;;0.30;0.30;;;;;;;7.15;100.00;102828.41;4977903;28;20057;-85
2021/12/16 10:57:04;;;;;;;0.30;0.30;;;;;;;7.20;100.00;102840.50;4979007;28;20050;-85
2021/12/16 10:59:39;;;;;;;0.30;0.30;;;;;;;7.19;100.00;102830.69;5010330;28;20069;-83
2021/12/16 11:02:13;;;;;;;0.20;0.20;;;;;;;7.17;100.00;102827.34;5011222;28;20531;-85
2021/12/16 11:04:51;;;;;;;0.30;0.30;;;;;;;7.31;100.00;102842.59;4983912;28;20042;-86
2021/12/16 11:07:26;;;;;;;;;;;;;;;7.34;100.00;102841.38;4979791;28;20050;-85
2021/12/16 11:10:08;;;;;;;0.30;0.30;;;;;;;7.32;100.00;102850.53;4976394;28;19937;-84
2021/12/16 11:12:47;;;;;;;0.20;0.20;;;;;;;7.21;100.00;102839.44;5006596;28;20813;-84
2021/12/16 11:15:23;;;;;;;0.20;0.20;;;;;;;7.24;100.00;102850.72;4982129;28;20038;-84
2021/12/16 11:18:02;;;;;;;0.30;0.30;;;;;;;7.27;100.00;102861.13;4985397;28;20045;-83
2021/12/16 11:20:38;;;;;;;0.20;0.20;;;;;;;7.30;100.00;102868.00;4964243;28;20482;-84
2021/12/16 11:23:13;;;;;;;0.30;0.30;;;;;;;7.30;100.00;102868.00;4981889;28;20057;-85
2021/12/16 11:25:45;;;;;;;0.30;0.30;;;;;;;7.27;100.00;102871.13;4988077;28;20688;-84
2021/12/16 11:28:22;;;;;;;0.30;0.30;;;;;;;7.28;100.00;102880.94;4985543;28;20065;-86
2021/12/16 11:30:57;;;;;;;0.30;0.30;;;;;;;7.30;100.00;102882.38;4985307;28;20054;-85
2021/12/16 11:33:29;;;;;;;0.30;0.30;;;;;;;7.34;100.00;102882.81;4986078;28;20673;-84
2021/12/16 11:36:10;;;;;;;0.40;0.40;;;;;;;7.43;100.00;102900.56;4982712;28;20402;-84
2021/12/16 11:38:47;;;;;;;0.30;0.30;;;;;;;7.39;100.00;102912.84;4981085;28;20819;-84
2021/12/16 11:41:27;;;;;;;0.30;0.30;;;;;;;7.38;100.00;102916.59;4983103;28;20055;-84
2021/12/16 11:44:08;;;;;;;0.30;0.30;;;;;;;7.37;100.00;102909.50;4983075;28;20054;-84
2021/12/16 11:46:42;;;;;;;0.30;0.30;;;;;;;7.46;100.00;102919.13;4967031;28;20054;-83
2021/12/16 11:49:22;;;;;;;0.30;0.30;;;;;;;7.46;100.00;102912.88;4965523;28;20058;-83
2021/12/16 11:52:00;;;;;;;0.25;0.25;;;;;;;7.45;100.00;102898.47;4966527;28;20062;-83
2021/12/16 11:54:36;;;;;;;0.30;0.30;;;;;;;7.50;100.00;102889.75;4968969;28;20050;-84
2021/12/16 11:57:13;;;;;;;0.30;0.30;;;;;;;7.40;100.00;102894.72;4963775;28;20551;-81
2021/12/16 11:59:45;;;;;;;0.38;0.38;;;;;;;7.40;100.00;102900.13;4996619;28;20054;-84
2021/12/16 12:02:26;;;;;;;0.30;0.30;;;;;;;7.42;100.00;102901.59;4970988;28;20507;-83
2021/12/16 12:05:17;;;;;;;0.30;0.30;;;;;;;7.35;100.00;102894.47;4969672;28;20062;-83
2021/12/16 12:07:48;;;;;;;0.30;0.30;;;;;;;7.40;100.00;102897.41;4970802;28;20051;-82
2021/12/16 12:10:43;;;;;;;0.30;0.30;;;;;;;7.36;100.00;102890.75;4966094;28;20050;-82
2021/12/16 12:13:21;;;;;;;0.22;0.22;;;;;;;7.35;100.00;102883.66;4963767;28;20059;-83
2021/12/16 12:16:01;;;;;;;0.30;0.30;;;;;;;7.36;100.00;102878.06;4965035;28;20054;-82
2021/12/16 12:18:38;;;;;;;0.35;0.32;;;;;;;7.31;100.00;102881.34;4953088;28;20058;-82
2021/12/16 12:21:20;;;;;;;0.30;0.30;;;;;;;7.41;100.00;102885.56;4969698;28;20142;-82
2021/12/16 12:23:56;;;;;;;0.40;0.40;;;;;;;7.36;100.00;102888.03;4967120;28;20493;-82
2021/12/16 12:26:26;;;;;;;0.22;0.22;;;;;;;7.31;100.00;102894.06;4960349;28;20045;-82
2021/12/16 12:29:02;;;;;;;0.30;0.30;;;;;;;7.41;100.00;102893.69;4961613;28;20042;-82
2021/12/16 12:31:35;;;;;;;0.20;0.20;;;;;;;7.40;100.00;102900.13;4959679;28;20054;-82
2021/12/16 12:34:09;;;;;;;0.25;0.25;;;;;;;7.35;100.00;102900.75;4964464;28;20569;-82
2021/12/16 12:36:42;;;;;;;0.22;0.22;;;;;;;7.40;100.00;102919.09;4968837;28;20050;-82
2021/12/16 12:39:18;;;;;;;0.30;0.30;;;;;;;7.41;100.00;102918.06;4967629;28;20053;-82
2021/12/16 12:41:48;;;;;;;0.30;0.30;;;;;;;7.32;100.00;102917.41;5004002;28;20423;-83
2021/12/16 12:44:22;;;;;;;0.30;0.30;;;;;;;7.28;100.00;102908.03;4970474;28;20076;-83
2021/12/16 12:47:00;;;;;;;0.30;0.30;;;;;;;7.33;100.00;102924.47;4976705;28;20065;-82
2021/12/16 12:49:34;;;;;;;0.30;0.30;;;;;;;7.30;100.00;102909.47;4966368;28;20432;-82
2021/12/16 12:52:08;;;;;;;0.30;0.30;;;;;;;7.28;100.00;102908.84;4968478;28;20054;-83
2021/12/16 12:54:44;;;;;;;0.28;0.28;;;;;;;7.21;100.00;102904.44;4970487;28;20057;-82
2021/12/16 12:57:25;;;;;;;0.20;0.20;;;;;;;7.26;100.00;102916.31;4972635;28;20050;-82
2021/12/16 12:59:54;;;;;;;0.30;0.30;;;;;;;7.26;100.00;102921.75;4969405;28;21002;-82
2021/12/16 13:02:34;;;;;;;0.20;0.20;;;;;;;7.34;100.00;102923.44;4966781;28;20050;-83
2021/12/16 13:05:11;;;;;;;0.30;0.30;;;;;;;7.28;100.00;102918.88;4973837;28;20054;-82
2021/12/16 13:07:48;;;;;;;0.40;0.40;;;;;;;7.29;100.00;102917.78;4970632;28;21345;-81
2021/12/16 13:10:21;;;;;;;0.30;0.30;;;;;;;7.27;100.00;102911.75;4975254;28;20042;-83
2021/12/16 13:13:02;;;;;;;0.30;0.30;;;;;;;7.28;100.00;102916.97;4971950;28;20050;-83
2021/12/16 13:15:43;;;;;;;0.30;0.30;;;;;;;7.38;100.00;102913.88;4969816;28;20065;-83
2021/12/16 13:24:24;;;;;;;0.30;0.30;;;;;;;7.20;100.00;102908.19;4948093;28;19930;-82
2021/12/16 13:27:06;;;;;;;0.20;0.20;;;;;;;7.13;100.00;102917.13;4975525;28;20047;-82
2021/12/16 13:29:42;;;;;;;0.30;0.30;;;;;;;7.11;100.00;102923.78;4971971;28;20046;-81
2021/12/16 13:32:24;;;;;;;0.30;0.30;;;;;;;7.08;100.00;102935.84;4970747;28;20059;-83
2021/12/16 13:35:12;;;;;;;0.22;0.22;;;;;;;7.05;100.00;102924.59;4972771;28;20053;-84
2021/12/16 13:37:44;;;;;;;0.20;0.20;;;;;;;6.99;100.00;102920.81;4972450;28;20054;-83
2021/12/16 13:40:20;;;;;;;0.30;0.30;;;;;;;6.97;100.00;102936.41;4970285;28;20058;-83
2021/12/16 13:42:59;;;;;;;0.32;0.32;;;;;;;6.96;100.00;102949.13;4972852;28;20468;-83
2021/12/16 13:45:39;;;;;;;0.32;0.32;;;;;;;6.97;100.00;102947.22;4973026;28;20522;-82
2021/12/16 13:48:36;;;;;;;0.22;0.22;;;;;;;6.89;100.00;102950.97;4970007;28;20066;-83
2021/12/16 14:03:07;;;;;;;0.20;0.20;;;;;;;6.63;100.00;102933.50;4954477;28;20058;-83
2021/12/16 14:06:09;;;;;;;0.30;0.30;;;;;;;6.59;100.00;102934.09;4975118;28;20054;-82
2021/12/16 14:08:43;;;;;;;0.20;0.20;;;;;;;6.50;100.00;102927.16;4971166;28;20066;-83
2021/12/16 14:12:13;;;;;;;0.20;0.20;;;;;;;6.47;100.00;102912.97;4972862;28;20049;-82
2021/12/16 14:15:10;;;;;;;0.30;0.30;;;;;;;6.41;100.00;102912.97;4969773;28;20739;-81
2021/12/16 14:17:56;;;;;;;0.30;0.30;;;;;;;6.37;100.00;102909.81;4968685;28;20054;-83
2021/12/16 14:23:27;;;;;;;0.30;0.30;;;;;;;6.29;100.00;102893.72;4964220;28;20069;-82
2021/12/16 14:26:21;;;;;;;0.20;0.20;;;;;;;6.30;100.00;102903.50;4961257;28;20054;-81